createdAt,value
2022-10-29T00:01:34.366Z,9.50
2022-10-29T00:11:40.265Z,8.90
2022-10-29T00:21:46.041Z,7.90
2022-10-29T00:31:53.501Z,8.40
2022-10-29T00:41:59.235Z,7.20
2022-10-29T00:52:06.344Z,6.70
2022-10-29T01:02:12.219Z,6.90
2022-10-29T01:12:41.581Z,6.60
2022-10-29T01:22:54.661Z,7.70
2022-10-29T01:33:10.724Z,7.40
2022-10-29T01:53:32.608Z,7.40
2022-10-29T02:03:50.120Z,7.20
2022-10-29T02:14:03.320Z,6.60
2022-10-29T02:24:10.379Z,6.20
2022-10-29T02:34:16.270Z,6.20
2022-10-29T02:44:22.131Z,6.60
2022-10-29T02:54:28.072Z,7.00
2022-10-29T03:04:33.684Z,6.30
2022-10-29T03:14:39.295Z,6.00
2022-10-29T03:24:44.903Z,7.20
2022-10-29T03:34:52.642Z,7.10
2022-10-29T03:45:00.276Z,6.00
2022-10-29T03:55:07.337Z,5.30
2022-10-29T04:05:13.118Z,6.20
2022-10-29T04:15:19.148Z,6.00
2022-10-29T04:35:55.546Z,7.20
2022-10-29T04:46:01.725Z,6.40
2022-10-29T04:56:08.198Z,6.70
2022-10-29T05:06:13.995Z,6.20
2022-10-29T05:16:19.704Z,5.50
2022-10-29T05:26:25.594Z,5.60
2022-10-29T05:36:31.367Z,5.90
2022-10-29T05:46:37.028Z,6.40
2022-10-29T05:56:42.635Z,7.10
2022-10-29T06:06:48.788Z,6.10
2022-10-29T06:16:54.531Z,7.00
2022-10-29T06:27:00.107Z,6.20
2022-10-29T06:37:05.797Z,6.00
2022-10-29T06:47:11.463Z,6.00
2022-10-29T06:57:17.129Z,5.40
2022-10-29T07:17:33.587Z,5.90
2022-10-29T07:27:39.329Z,5.00
2022-10-29T07:37:45.029Z,5.40
2022-10-29T07:48:02.700Z,4.80
2022-10-29T07:58:12.167Z,5.30
2022-10-29T08:08:18.706Z,5.40
2022-10-29T08:18:24.434Z,5.30
2022-10-29T08:28:33.188Z,4.60
2022-10-29T08:38:41.443Z,4.60
2022-10-29T08:48:53.714Z,5.30
2022-10-29T08:59:04.527Z,4.80
2022-10-29T09:09:31.332Z,5.30
2022-10-29T09:20:00.369Z,5.70
2022-10-29T09:30:10.675Z,5.00
2022-10-29T09:40:25.608Z,5.20
2022-10-29T09:50:37.002Z,7.00
2022-10-29T10:00:43.006Z,6.70
2022-10-29T10:10:57.189Z,6.90
2022-10-29T10:21:09.562Z,6.30
2022-10-29T10:31:17.662Z,8.00
2022-10-29T10:41:29.620Z,7.70
2022-10-29T10:51:37.881Z,6.40
2022-10-29T11:01:48.613Z,7.10
2022-10-29T11:12:01.583Z,6.20
2022-10-29T11:22:15.049Z,5.60
2022-10-29T11:32:25.218Z,6.30
2022-10-29T11:42:31.450Z,7.30
2022-10-29T11:52:45.793Z,7.60
2022-10-29T12:03:10.681Z,4.90
2022-10-29T12:13:25.332Z,4.20
2022-10-29T12:23:50.542Z,5.20
2022-10-29T12:34:04.536Z,4.60
2022-10-29T12:44:20.585Z,4.90
2022-10-29T12:54:37.979Z,4.60
2022-10-29T13:05:17.285Z,5.40
2022-10-29T13:15:24.376Z,4.20
2022-10-29T13:25:53.528Z,5.60
2022-10-29T13:36:01.060Z,5.30
2022-10-29T13:46:24.900Z,5.30
2022-10-29T13:56:35.933Z,6.70
2022-10-29T14:06:42.652Z,5.80
2022-10-29T14:16:48.468Z,5.40
2022-10-29T14:27:08.754Z,6.80
2022-10-29T14:37:19.411Z,5.60
2022-10-29T14:47:32.281Z,5.50
2022-10-29T14:57:47.035Z,6.90
2022-10-29T15:07:52.928Z,6.50
2022-10-29T15:18:03.184Z,5.70
2022-10-29T15:28:13.349Z,6.20
2022-10-29T15:39:08.889Z,7.60
2022-10-29T15:49:18.563Z,7.80
2022-10-29T15:59:26.965Z,8.30
2022-10-29T16:09:32.789Z,8.10
2022-10-29T16:19:38.412Z,9.50
2022-10-29T16:29:44.394Z,10.10
2022-10-29T16:39:50.006Z,10.80
2022-10-29T16:49:55.845Z,9.60
2022-10-29T17:00:01.628Z,10.20
2022-10-29T17:10:08.699Z,11.80
2022-10-29T17:20:14.575Z,12.40
2022-10-29T17:30:20.561Z,13.20
2022-10-29T17:40:26.309Z,14.60
2022-10-29T17:50:32.039Z,14.70
2022-10-29T18:00:37.709Z,14.80
2022-10-29T18:10:43.319Z,17.00
2022-10-29T18:20:49.410Z,16.60
2022-10-29T18:30:55.427Z,16.70
2022-10-29T18:41:01.638Z,20.70
2022-10-29T18:51:09.955Z,19.20
2022-10-29T19:01:19.026Z,19.50
2022-10-29T19:11:27.552Z,19.80
2022-10-29T19:21:34.925Z,19.60
2022-10-29T19:31:41.308Z,20.50
2022-10-29T19:41:46.989Z,19.10
2022-10-29T19:51:53.328Z,18.40
2022-10-29T20:01:59.336Z,18.60
2022-10-29T20:12:05.617Z,18.90
2022-10-29T20:22:11.283Z,20.00
2022-10-29T20:32:17.099Z,20.60
2022-10-29T20:42:24.257Z,20.40
2022-10-29T20:52:30.522Z,27.50
2022-10-29T21:02:36.271Z,30.00
2022-10-29T21:12:45.060Z,30.40
2022-10-29T21:22:50.782Z,31.20
2022-10-29T21:32:57.525Z,29.20
2022-10-29T21:43:03.242Z,29.90
2022-10-29T21:53:10.267Z,29.10
2022-10-29T22:03:15.877Z,30.90
2022-10-29T22:13:21.503Z,28.00
2022-10-29T22:23:27.129Z,45.10
2022-10-29T22:33:33.999Z,36.70
2022-10-29T22:43:40.210Z,37.00
2022-10-29T22:53:47.311Z,28.30
2022-10-29T23:03:53.693Z,35.40
2022-10-29T23:14:01.068Z,31.80
2022-10-29T23:24:07.988Z,30.40
2022-10-29T23:34:15.113Z,27.40
2022-10-29T23:44:20.830Z,28.00
2022-10-29T23:54:26.831Z,29.10
